Time;durP1;ratioP1;P1;durP2;ratioP2;P2;SDS_P1;SDS_P2;PMS_P1;PMS_P2;Temp;Humidity;BMP_temperature;BMP_pressure;BME280_temperature;BME280_humidity;BME280_pressure;Samples;Min_cycle;Max_cycle;Signal;HPM_P1;HPM_P2
2022/05/06 00:00:12;;;;;;;5.38;4.28;;;;;;;;;;5073364;28;20036;-56
2022/05/06 00:02:38;;;;;;;9.93;3.53;;;;;;;;;;5073241;28;20052;-58
2022/05/06 00:05:08;;;;;;;5.18;4.03;;;;;;;;;;5073301;28;20024;-56
2022/05/06 00:07:33;;;;;;;7.03;4.45;;;;;;;;;;5073234;28;20073;-58
2022/05/06 00:10:01;;;;;;;8.80;4.20;;;;;;;;;;5072797;28;20417;-58
2022/05/06 00:12:26;;;;;;;5.10;4.15;;;;;;;;;;5073143;28;20028;-59
2022/05/06 00:14:52;;;;;;;5.65;4.00;;;;;;;;;;5073078;28;20040;-58
2022/05/06 00:17:18;;;;;;;10.00;4.70;;;;;;;;;;5073090;28;20360;-58
2022/05/06 00:19:43;;;;;;;8.45;4.28;;;;;;;;;;5072742;28;20021;-66
2022/05/06 00:22:10;;;;;;;4.63;4.07;;;;;;;;;;5072680;28;20032;-66
2022/05/06 00:24:36;;;;;;;6.28;4.13;;;;;;;;;;5072328;28;20039;-59
2022/05/06 00:27:01;;;;;;;4.85;3.95;;;;;;;;;;5072945;28;20028;-59
2022/05/06 00:29:27;;;;;;;8.90;4.10;;;;;;;;;;5072945;28;20032;-59
2022/05/06 00:31:53;;;;;;;5.95;4.10;;;;;;;;;;5072829;28;20077;-59
2022/05/06 00:34:19;;;;;;;6.57;4.07;;;;;;;;;;5072850;28;20025;-58
2022/05/06 00:36:44;;;;;;;6.18;3.92;;;;;;;;;;5072905;28;20021;-60
2022/05/06 00:39:10;;;;;;;7.53;4.95;;;;;;;;;;5072835;28;20081;-58
2022/05/06 00:41:35;;;;;;;5.07;3.85;;;;;;;;;;5072826;28;20377;-58
2022/05/06 00:44:04;;;;;;;6.18;4.00;;;;;;;;;;5072766;28;20094;-59
2022/05/06 00:46:31;;;;;;;6.03;3.90;;;;;;;;;;5072704;28;20027;-58
2022/05/06 00:48:56;;;;;;;5.18;3.83;;;;;;;;;;5072456;28;20021;-58
2022/05/06 00:51:23;;;;;;;5.60;4.18;;;;;;;;;;5072617;28;20029;-58
2022/05/06 00:53:50;;;;;;;7.35;4.57;;;;;;;;;;5072368;28;20028;-59
2022/05/06 00:56:17;;;;;;;5.78;3.90;;;;;;;;;;5072148;28;20045;-58
2022/05/06 00:58:44;;;;;;;8.82;4.63;;;;;;;;;;5072600;28;20060;-59
2022/05/06 01:01:10;;;;;;;4.85;4.22;;;;;;;;;;5072518;28;20082;-59
2022/05/06 01:03:35;;;;;;;7.15;4.90;;;;;;;;;;5072279;28;20392;-59
2022/05/06 01:06:06;;;;;;;6.53;4.78;;;;;;;;;;5072233;28;20063;-60
2022/05/06 01:08:31;;;;;;;5.43;4.93;;;;;;;;;;5072492;28;20032;-59
2022/05/06 01:10:58;;;;;;;5.95;4.72;;;;;;;;;;5054611;28;20384;-58
2022/05/06 01:13:23;;;;;;;6.75;5.25;;;;;;;;;;5072385;28;20017;-60
2022/05/06 01:15:49;;;;;;;7.60;5.10;;;;;;;;;;5072467;28;20414;-59
2022/05/06 01:18:14;;;;;;;6.38;5.22;;;;;;;;;;5072224;28;20032;-59
2022/05/06 01:20:48;;;;;;;10.38;5.68;;;;;;;;;;5072403;28;20032;-59
2022/05/06 01:23:13;;;;;;;13.05;4.90;;;;;;;;;;5072084;28;20167;-59
2022/05/06 01:25:39;;;;;;;8.23;5.38;;;;;;;;;;5072328;28;20055;-60
2022/05/06 01:28:06;;;;;;;7.50;5.18;;;;;;;;;;5072371;28;20404;-59
2022/05/06 01:30:48;;;;;;;5.65;4.68;;;;;;;;;;5072209;28;20025;-59
2022/05/06 01:33:21;;;;;;;10.45;5.20;;;;;;;;;;5072094;28;20025;-59
2022/05/06 01:35:55;;;;;;;7.07;5.63;;;;;;;;;;5073698;28;20032;-59
2022/05/06 01:38:29;;;;;;;6.75;5.22;;;;;;;;;;5076057;28;20040;-59
2022/05/06 01:40:59;;;;;;;8.43;5.63;;;;;;;;;;5076025;28;20033;-59
2022/05/06 01:43:25;;;;;;;9.10;4.72;;;;;;;;;;5075957;28;20425;-58
2022/05/06 01:45:54;;;;;;;7.60;5.13;;;;;;;;;;5075649;28;20029;-59
2022/05/06 01:48:22;;;;;;;6.93;4.80;;;;;;;;;;5075866;28;20029;-59
2022/05/06 01:50:48;;;;;;;5.38;3.72;;;;;;;;;;5075408;28;20541;-60
2022/05/06 01:53:16;;;;;;;5.72;4.20;;;;;;;;;;5075780;28;20119;-59
2022/05/06 01:55:43;;;;;;;9.15;5.20;;;;;;;;;;5075425;28;20027;-59
2022/05/06 01:58:09;;;;;;;6.85;4.97;;;;;;;;;;5075221;28;20076;-59
2022/05/06 02:00:36;;;;;;;7.88;5.35;;;;;;;;;;5075688;28;20443;-58
2022/05/06 02:03:02;;;;;;;8.60;5.20;;;;;;;;;;5075323;28;20063;-58
2022/05/06 02:05:27;;;;;;;7.82;4.93;;;;;;;;;;5075620;28;20035;-57
2022/05/06 02:07:53;;;;;;;6.07;4.97;;;;;;;;;;5075489;28;20058;-57
2022/05/06 02:10:21;;;;;;;7.07;5.22;;;;;;;;;;5075436;28;20094;-57
2022/05/06 02:12:47;;;;;;;8.95;5.90;;;;;;;;;;5075449;28;20024;-58
2022/05/06 02:15:14;;;;;;;8.43;5.75;;;;;;;;;;5075405;28;20031;-57
2022/05/06 02:17:41;;;;;;;5.03;3.90;;;;;;;;;;5075120;28;20028;-57
2022/05/06 02:20:09;;;;;;;4.97;3.42;;;;;;;;;;5074973;28;20491;-57
2022/05/06 02:22:35;;;;;;;5.95;4.72;;;;;;;;;;5075301;28;20178;-57
2022/05/06 02:25:01;;;;;;;5.50;4.55;;;;;;;;;;5075185;28;20020;-59
2022/05/06 02:27:27;;;;;;;7.38;5.78;;;;;;;;;;5075151;28;20111;-58
2022/05/06 02:35:21;;;;;;;7.63;5.70;;;;;;;;;;5075139;28;20391;-59
2022/05/06 02:37:46;;;;;;;5.35;3.13;;;;;;;;;;5074693;28;20387;-59
2022/05/06 02:40:12;;;;;;;6.43;4.10;;;;;;;;;;5074953;28;20025;-59
2022/05/06 02:42:37;;;;;;;4.93;3.90;;;;;;;;;;5074630;28;20051;-60
2022/05/06 02:45:04;;;;;;;6.28;4.93;;;;;;;;;;5074581;28;20024;-60
2022/05/06 02:47:29;;;;;;;14.57;6.18;;;;;;;;;;5074562;28;20032;-59
2022/05/06 02:49:55;;;;;;;6.55;5.35;;;;;;;;;;5074722;28;20020;-60
2022/05/06 02:52:21;;;;;;;11.88;5.80;;;;;;;;;;5074723;28;20035;-58
2022/05/06 02:54:47;;;;;;;9.80;6.60;;;;;;;;;;5074675;28;20020;-59
2022/05/06 02:57:13;;;;;;;6.47;5.10;;;;;;;;;;5074124;28;20377;-58
2022/05/06 02:59:39;;;;;;;7.03;5.50;;;;;;;;;;5074371;28;20041;-59
2022/05/06 03:02:05;;;;;;;7.28;5.47;;;;;;;;;;5074537;28;20037;-59
2022/05/06 03:04:31;;;;;;;7.45;5.63;;;;;;;;;;5074490;28;20494;-59
2022/05/06 03:06:56;;;;;;;16.88;6.35;;;;;;;;;;5074193;28;20040;-59
2022/05/06 03:09:22;;;;;;;9.80;6.50;;;;;;;;;;5074388;28;20059;-59
2022/05/06 03:11:47;;;;;;;11.43;6.68;;;;;;;;;;5056113;28;20403;-59
2022/05/06 03:14:12;;;;;;;11.63;6.50;;;;;;;;;;5074240;28;20456;-59
2022/05/06 03:16:38;;;;;;;7.55;5.38;;;;;;;;;;5074014;28;20028;-58
2022/05/06 03:19:03;;;;;;;6.65;4.72;;;;;;;;;;5074202;28;20035;-59
2022/05/06 03:21:28;;;;;;;5.53;4.50;;;;;;;;;;5074176;28;20081;-57
2022/05/06 03:23:55;;;;;;;5.50;4.63;;;;;;;;;;5074081;28;20508;-58
2022/05/06 03:26:21;;;;;;;4.32;3.92;;;;;;;;;;5074049;28;20025;-59
2022/05/06 03:28:46;;;;;;;14.50;5.50;;;;;;;;;;5074035;28;20035;-59
2022/05/06 03:31:14;;;;;;;6.80;5.20;;;;;;;;;;5073507;28;20391;-57
2022/05/06 03:33:41;;;;;;;2.90;2.60;;;;;;;;;;5073869;28;20024;-59
2022/05/06 03:36:09;;;;;;;6.60;5.30;;;;;;;;;;5073854;28;20078;-59
2022/05/06 03:38:34;;;;;;;5.00;4.10;;;;;;;;;;5073511;28;20025;-58
2022/05/06 03:41:00;;;;;;;5.15;3.90;;;;;;;;;;5073513;28;20021;-58
2022/05/06 03:43:27;;;;;;;12.27;5.13;;;;;;;;;;5073688;28;20111;-58
2022/05/06 03:45:52;;;;;;;8.25;5.10;;;;;;;;;;5073421;28;20024;-59
2022/05/06 03:48:21;;;;;;;7.55;5.07;;;;;;;;;;5073600;28;20027;-59
2022/05/06 03:53:30;;;;;;;8.57;6.65;;;;;;;;;;5073354;28;20548;-59
2022/05/06 03:55:55;;;;;;;8.60;7.18;;;;;;;;;;5072946;28;20029;-59
2022/05/06 03:58:20;;;;;;;7.65;4.70;;;;;;;;;;5072605;28;20070;-59
2022/05/06 04:00:46;;;;;;;9.85;6.18;;;;;;;;;;5073389;28;20044;-60
2022/05/06 04:03:11;;;;;;;11.82;4.82;;;;;;;;;;5073338;28;20375;-59
2022/05/06 04:05:36;;;;;;;10.82;7.38;;;;;;;;;;5072959;28;20032;-60
2022/05/06 04:08:02;;;;;;;6.40;5.43;;;;;;;;;;5073194;28;20025;-59
2022/05/06 04:10:29;;;;;;;10.52;7.10;;;;;;;;;;5073105;28;20115;-59
2022/05/06 04:12:54;;;;;;;4.03;3.60;;;;;;;;;;5073192;28;20277;-59
2022/05/06 04:15:20;;;;;;;6.95;4.28;;;;;;;;;;5073242;28;20330;-60
2022/05/06 04:17:46;;;;;;;8.85;5.10;;;;;;;;;;5054935;28;20031;-59
2022/05/06 04:25:41;;;;;;;8.07;6.05;;;;;;;;;;5072984;28;20029;-59
2022/05/06 04:28:07;;;;;;;9.90;4.88;;;;;;;;;;5072948;28;20028;-61
2022/05/06 04:30:32;;;;;;;9.85;5.32;;;;;;;;;;5054714;28;20111;-61
2022/05/06 04:32:58;;;;;;;11.35;6.53;;;;;;;;;;5072904;28;20075;-60
2022/05/06 04:35:23;;;;;;;11.55;4.03;;;;;;;;;;5072565;28;20447;-60
2022/05/06 04:37:49;;;;;;;7.10;3.95;;;;;;;;;;5072655;28;20100;-59
2022/05/06 04:40:15;;;;;;;5.05;3.85;;;;;;;;;;5072583;28;20032;-60
2022/05/06 04:42:41;;;;;;;6.25;4.85;;;;;;;;;;5054535;28;20024;-60
2022/05/06 04:45:07;;;;;;;4.30;3.67;;;;;;;;;;5072574;28;20035;-65
2022/05/06 04:47:34;;;;;;;7.95;5.35;;;;;;;;;;5072580;28;20024;-60
2022/05/06 04:50:00;;;;;;;5.68;4.97;;;;;;;;;;5072344;28;20031;-59
2022/05/06 04:52:26;;;;;;;7.07;5.75;;;;;;;;;;5072359;28;20020;-60
2022/05/06 04:54:51;;;;;;;8.38;5.88;;;;;;;;;;5071807;28;20021;-60
2022/05/06 04:57:16;;;;;;;9.70;6.13;;;;;;;;;;5071344;28;20048;-61
2022/05/06 04:59:47;;;;;;;7.43;6.10;;;;;;;;;;5072180;28;20070;-60
2022/05/06 05:02:13;;;;;;;5.05;3.60;;;;;;;;;;5072173;28;20032;-60
2022/05/06 05:04:39;;;;;;;8.43;6.20;;;;;;;;;;5072219;28;20031;-61
2022/05/06 05:07:04;;;;;;;10.15;6.43;;;;;;;;;;5072127;28;20095;-60
2022/05/06 05:09:30;;;;;;;8.82;6.38;;;;;;;;;;5073188;28;20082;-61
2022/05/06 05:11:55;;;;;;;9.38;6.57;;;;;;;;;;5076673;28;20043;-60
2022/05/06 05:14:21;;;;;;;8.10;6.35;;;;;;;;;;5076262;28;20480;-60
2022/05/06 05:16:48;;;;;;;8.50;6.32;;;;;;;;;;5076200;28;20024;-60
2022/05/06 05:19:14;;;;;;;10.05;6.57;;;;;;;;;;5076449;28;20437;-60
2022/05/06 05:21:40;;;;;;;9.77;6.85;;;;;;;;;;5076206;28;20048;-59
2022/05/06 05:24:06;;;;;;;7.70;6.28;;;;;;;;;;5076312;28;20070;-59
2022/05/06 05:26:31;;;;;;;7.07;4.97;;;;;;;;;;5075973;28;20040;-60
2022/05/06 05:28:56;;;;;;;7.18;5.25;;;;;;;;;;5076228;28;20036;-59
2022/05/06 05:31:22;;;;;;;9.45;6.13;;;;;;;;;;5075828;28;20029;-60
2022/05/06 05:33:48;;;;;;;6.10;4.53;;;;;;;;;;5076192;28;20024;-61
2022/05/06 05:36:14;;;;;;;9.63;6.47;;;;;;;;;;5058406;28;20024;-61
2022/05/06 05:38:39;;;;;;;8.98;6.05;;;;;;;;;;5075439;28;20104;-60
2022/05/06 05:41:04;;;;;;;7.68;4.82;;;;;;;;;;5075402;28;20494;-60
2022/05/06 05:48:58;;;;;;;6.40;5.03;;;;;;;;;;5075808;28;20035;-60
2022/05/06 05:51:23;;;;;;;7.65;5.93;;;;;;;;;;5074513;28;20032;-61
2022/05/06 05:53:48;;;;;;;8.60;5.05;;;;;;;;;;5075145;28;20369;-59
2022/05/06 05:56:14;;;;;;;7.60;5.10;;;;;;;;;;5075518;28;20041;-61
2022/05/06 05:58:40;;;;;;;6.05;5.18;;;;;;;;;;5075392;28;20430;-59
2022/05/06 06:01:05;;;;;;;5.57;3.88;;;;;;;;;;5075341;28;20052;-61
2022/05/06 06:03:31;;;;;;;7.93;5.70;;;;;;;;;;5075304;28;20054;-61
2022/05/06 06:05:56;;;;;;;6.32;4.00;;;;;;;;;;5075623;28;20218;-59
2022/05/06 06:08:23;;;;;;;6.18;4.25;;;;;;;;;;5075108;28;20047;-59
2022/05/06 06:10:49;;;;;;;8.90;5.65;;;;;;;;;;5074963;28;20029;-60
2022/05/06 06:13:17;;;;;;;7.20;6.15;;;;;;;;;;5074439;28;20028;-60
2022/05/06 06:15:42;;;;;;;6.47;3.63;;;;;;;;;;5075390;28;20028;-61
2022/05/06 06:18:08;;;;;;;5.18;3.72;;;;;;;;;;5075022;28;20505;-60
2022/05/06 06:20:33;;;;;;;5.45;4.55;;;;;;;;;;5075136;28;20035;-60
2022/05/06 06:22:58;;;;;;;8.30;6.25;;;;;;;;;;5074773;28;20512;-60
2022/05/06 06:25:24;;;;;;;7.30;5.68;;;;;;;;;;5074975;28;20025;-60
2022/05/06 06:27:49;;;;;;;7.03;4.95;;;;;;;;;;5074979;28;20028;-60
2022/05/06 06:30:15;;;;;;;6.57;5.35;;;;;;;;;;5074785;28;20472;-60
2022/05/06 06:32:40;;;;;;;8.23;5.50;;;;;;;;;;5075131;28;20026;-61
2022/05/06 06:35:06;;;;;;;8.02;5.15;;;;;;;;;;5074728;28;20058;-60
2022/05/06 06:37:32;;;;;;;5.07;4.43;;;;;;;;;;5074987;28;20033;-60
2022/05/06 06:39:57;;;;;;;10.52;5.22;;;;;;;;;;5073283;28;20036;-60
2022/05/06 06:42:23;;;;;;;7.43;5.95;;;;;;;;;;5072719;28;20028;-59
2022/05/06 06:44:49;;;;;;;6.70;3.90;;;;;;;;;;5072889;28;20029;-59
2022/05/06 06:47:14;;;;;;;13.20;5.22;;;;;;;;;;5073025;28;20104;-59
2022/05/06 06:49:40;;;;;;;6.13;4.68;;;;;;;;;;5073192;28;20025;-60
2022/05/06 06:52:06;;;;;;;5.80;4.53;;;;;;;;;;5074327;28;20027;-60
2022/05/06 06:54:32;;;;;;;6.28;4.82;;;;;;;;;;5073979;28;20068;-62
2022/05/06 06:56:57;;;;;;;6.60;5.22;;;;;;;;;;5073701;28;20568;-61
2022/05/06 06:59:23;;;;;;;6.63;5.18;;;;;;;;;;5073478;28;20407;-60
2022/05/06 07:01:48;;;;;;;6.68;4.43;;;;;;;;;;5074063;28;20028;-62
2022/05/06 07:04:13;;;;;;;4.03;3.53;;;;;;;;;;5074330;28;20024;-61
2022/05/06 07:12:07;;;;;;;4.68;4.22;;;;;;;;;;5073932;28;20098;-61
2022/05/06 07:14:35;;;;;;;6.25;4.75;;;;;;;;;;5069734;28;20040;-60
2022/05/06 07:17:02;;;;;;;4.93;4.43;;;;;;;;;;5072796;28;20020;-62
2022/05/06 07:19:28;;;;;;;6.70;4.15;;;;;;;;;;5073771;28;20070;-60
2022/05/06 07:21:54;;;;;;;5.10;4.30;;;;;;;;;;5056038;28;20060;-60
2022/05/06 07:24:20;;;;;;;7.95;4.53;;;;;;;;;;5073981;28;20456;-61
2022/05/06 07:26:48;;;;;;;6.65;4.00;;;;;;;;;;5073940;28;20154;-60
2022/05/06 07:29:14;;;;;;;6.15;5.00;;;;;;;;;;5073620;28;20040;-63
2022/05/06 07:31:41;;;;;;;4.65;3.40;;;;;;;;;;5073553;28;20025;-62
2022/05/06 07:34:07;;;;;;;5.38;4.60;;;;;;;;;;5072580;28;20023;-62
2022/05/06 07:36:33;;;;;;;5.30;4.80;;;;;;;;;;5073215;28;20645;-61
2022/05/06 07:38:59;;;;;;;6.82;4.18;;;;;;;;;;5073454;28;20138;-59
2022/05/06 07:41:25;;;;;;;5.25;4.30;;;;;;;;;;5073382;28;20024;-61
2022/05/06 07:43:50;;;;;;;5.90;3.90;;;;;;;;;;5073437;28;20036;-60
2022/05/06 07:46:16;;;;;;;12.05;4.70;;;;;;;;;;5073470;28;20024;-59
2022/05/06 07:48:41;;;;;;;4.55;4.10;;;;;;;;;;5073319;28;20020;-59
2022/05/06 07:51:07;;;;;;;3.80;3.38;;;;;;;;;;5073130;28;20072;-61
2022/05/06 07:53:32;;;;;;;5.47;3.92;;;;;;;;;;5073460;28;20081;-60
2022/05/06 07:55:58;;;;;;;4.40;4.00;;;;;;;;;;5054948;28;20103;-59
2022/05/06 07:58:23;;;;;;;5.55;4.50;;;;;;;;;;5072288;28;20028;-59
2022/05/06 08:00:50;;;;;;;3.58;2.92;;;;;;;;;;5071550;28;20035;-59
2022/05/06 08:06:00;;;;;;;4.20;3.80;;;;;;;;;;5071675;28;20383;-58
2022/05/06 08:08:26;;;;;;;6.20;4.38;;;;;;;;;;5071174;28;20028;-58
2022/05/06 08:10:53;;;;;;;10.27;3.88;;;;;;;;;;5071477;28;20032;-60
2022/05/06 08:13:20;;;;;;;6.07;4.10;;;;;;;;;;5071545;28;20103;-60
2022/05/06 08:15:46;;;;;;;5.57;3.33;;;;;;;;;;5071047;28;20028;-58
2022/05/06 08:18:12;;;;;;;6.20;4.35;;;;;;;;;;5071402;28;20036;-59
2022/05/06 08:20:39;;;;;;;3.72;3.40;;;;;;;;;;5071232;28;20028;-58
2022/05/06 08:23:06;;;;;;;5.05;3.83;;;;;;;;;;5071140;28;20024;-58
2022/05/06 08:25:31;;;;;;;3.72;3.42;;;;;;;;;;5071182;28;20025;-61
2022/05/06 08:27:57;;;;;;;3.83;3.42;;;;;;;;;;5071327;28;20043;-59
2022/05/06 08:30:22;;;;;;;6.18;3.70;;;;;;;;;;5071257;28;20468;-59
2022/05/06 08:32:48;;;;;;;3.28;2.97;;;;;;;;;;5071136;28;20032;-60
2022/05/06 08:35:14;;;;;;;4.65;3.47;;;;;;;;;;5070836;28;20063;-59
2022/05/06 08:37:47;;;;;;;4.60;3.90;;;;;;;;;;5071022;28;20021;-58
2022/05/06 08:40:18;;;;;;;4.30;3.38;;;;;;;;;;5070879;28;20126;-59
2022/05/06 08:42:44;;;;;;;7.57;4.00;;;;;;;;;;5071000;28;20029;-58
2022/05/06 08:50:52;;;;;;;4.68;3.65;;;;;;;;;;5071086;28;20523;-59
2022/05/06 08:53:26;;;;;;;4.77;3.93;;;;;;;;;;5070997;28;20028;-58
2022/05/06 08:55:55;;;;;;;4.45;3.35;;;;;;;;;;5070657;28;20031;-63
2022/05/06 08:58:22;;;;;;;3.75;3.05;;;;;;;;;;5070428;28;20144;-57
2022/05/06 09:00:48;;;;;;;3.67;2.95;;;;;;;;;;5070854;28;20076;-57
2022/05/06 09:03:15;;;;;;;3.50;3.20;;;;;;;;;;5070866;28;20456;-60
2022/05/06 09:05:50;;;;;;;4.30;3.45;;;;;;;;;;5070701;28;20016;-58
2022/05/06 09:08:16;;;;;;;4.18;2.78;;;;;;;;;;5070400;28;20024;-56
2022/05/06 09:10:42;;;;;;;4.88;3.80;;;;;;;;;;5070071;28;20020;-60
2022/05/06 09:13:07;;;;;;;3.63;3.30;;;;;;;;;;5070950;28;20115;-57
2022/05/06 09:18:22;;;;;;;2.88;2.67;;;;;;;;;;5070928;28;20032;-60
2022/05/06 09:20:49;;;;;;;3.15;2.85;;;;;;;;;;5052458;28;20308;-57
2022/05/06 09:23:20;;;;;;;4.13;3.45;;;;;;;;;;5070368;28;20536;-57
2022/05/06 09:25:49;;;;;;;5.35;3.50;;;;;;;;;;5070763;28;20027;-56
2022/05/06 09:28:27;;;;;;;3.05;2.80;;;;;;;;;;5070571;28;20521;-62
2022/05/06 09:31:06;;;;;;;4.40;3.45;;;;;;;;;;5070266;28;20033;-55
2022/05/06 09:33:37;;;;;;;4.07;2.92;;;;;;;;;;5070806;28;20035;-57
2022/05/06 09:36:23;;;;;;;3.45;3.15;;;;;;;;;;5052304;28;20039;-56
2022/05/06 09:39:10;;;;;;;5.15;3.22;;;;;;;;;;5066598;28;20120;-56
2022/05/06 09:41:40;;;;;;;3.53;3.22;;;;;;;;;;5063889;28;20033;-56
2022/05/06 09:44:12;;;;;;;3.95;3.20;;;;;;;;;;5068132;28;20054;-56
2022/05/06 09:46:37;;;;;;;3.53;2.90;;;;;;;;;;5070174;28;20535;-58
2022/05/06 09:49:04;;;;;;;3.20;2.90;;;;;;;;;;5069704;28;20025;-55
2022/05/06 09:51:34;;;;;;;3.58;2.70;;;;;;;;;;5070074;28;20068;-57
2022/05/06 09:54:02;;;;;;;3.65;2.88;;;;;;;;;;5070368;28;20098;-55
2022/05/06 09:56:27;;;;;;;2.83;2.42;;;;;;;;;;5070991;28;20037;-58
2022/05/06 09:58:54;;;;;;;4.57;3.13;;;;;;;;;;5073980;28;20468;-55
2022/05/06 10:01:21;;;;;;;4.85;3.28;;;;;;;;;;5073741;28;20115;-56
2022/05/06 10:03:47;;;;;;;2.85;2.47;;;;;;;;;;5073950;28;20119;-54
2022/05/06 10:06:13;;;;;;;5.97;2.78;;;;;;;;;;5073687;28;20032;-57
2022/05/06 10:08:44;;;;;;;3.92;3.63;;;;;;;;;;5073576;28;20032;-56
2022/05/06 10:11:14;;;;;;;3.55;3.08;;;;;;;;;;5073407;28;20081;-55
2022/05/06 10:13:46;;;;;;;3.00;2.80;;;;;;;;;;5073742;28;20048;-56
2022/05/06 10:16:12;;;;;;;2.60;2.40;;;;;;;;;;5073499;28;20496;-56
2022/05/06 10:18:42;;;;;;;3.83;2.78;;;;;;;;;;5073522;28;20111;-55
2022/05/06 10:21:12;;;;;;;3.13;2.90;;;;;;;;;;5073341;28;20036;-54
2022/05/06 10:23:50;;;;;;;3.33;3.03;;;;;;;;;;5073325;28;20039;-53
2022/05/06 10:26:33;;;;;;;4.05;3.17;;;;;;;;;;5073485;28;20033;-57
2022/05/06 10:34:29;;;;;;;3.08;2.75;;;;;;;;;;5073478;28;20035;-54
2022/05/06 10:37:01;;;;;;;3.72;2.97;;;;;;;;;;5073064;28;20028;-57
2022/05/06 10:39:32;;;;;;;5.93;2.70;;;;;;;;;;5071604;28;20021;-53
2022/05/06 10:42:01;;;;;;;3.13;2.80;;;;;;;;;;5073196;28;20033;-53
2022/05/06 10:44:45;;;;;;;5.90;3.03;;;;;;;;;;5072936;28;20031;-52
2022/05/06 10:47:16;;;;;;;4.68;3.50;;;;;;;;;;5072943;28;20468;-55
2022/05/06 10:49:43;;;;;;;3.80;2.92;;;;;;;;;;5072831;28;20028;-56
2022/05/06 10:52:18;;;;;;;4.75;3.35;;;;;;;;;;5072629;28;20124;-53
2022/05/06 10:54:52;;;;;;;3.25;2.95;;;;;;;;;;5072916;28;20094;-54
2022/05/06 10:57:22;;;;;;;2.92;2.63;;;;;;;;;;5072593;28;20436;-53
2022/05/06 10:59:48;;;;;;;;;;;;;;;;;;5073382;28;20132;-55
2022/05/06 11:02:13;;;;;;;3.20;2.90;;;;;;;;;;5072455;28;20410;-54
2022/05/06 11:04:40;;;;;;;3.28;2.97;;;;;;;;;;5072812;28;20029;-51
2022/05/06 11:07:13;;;;;;;5.45;2.80;;;;;;;;;;5072327;28;20028;-53
2022/05/06 11:09:38;;;;;;;2.95;2.50;;;;;;;;;;5072324;28;20474;-54
2022/05/06 11:12:04;;;;;;;2.40;2.20;;;;;;;;;;5071312;28;20153;-55
2022/05/06 11:14:29;;;;;;;4.10;2.47;;;;;;;;;;5072608;28;20111;-54
2022/05/06 11:17:14;;;;;;;6.22;2.88;;;;;;;;;;5072640;28;20055;-51
2022/05/06 11:19:39;;;;;;;4.55;3.30;;;;;;;;;;5072580;28;20109;-53
2022/05/06 11:22:06;;;;;;;6.10;3.47;;;;;;;;;;5072281;28;20471;-55
2022/05/06 11:24:32;;;;;;;4.00;2.33;;;;;;;;;;5072297;28;20405;-53
2022/05/06 11:27:18;;;;;;;2.80;2.60;;;;;;;;;;5072139;28;20116;-59
2022/05/06 11:30:17;;;;;;;3.75;2.85;;;;;;;;;;5072298;28;20017;-57
2022/05/06 11:32:48;;;;;;;3.10;2.80;;;;;;;;;;5050263;28;20384;-57
2022/05/06 11:35:18;;;;;;;5.18;3.08;;;;;;;;;;5072016;28;20036;-58
2022/05/06 11:37:43;;;;;;;;;;;;;;;;;;5055289;28;20033;-56
2022/05/06 11:42:50;;;;;;;5.15;2.78;;;;;;;;;;5071873;28;20040;-54
2022/05/06 11:48:08;;;;;;;4.75;2.45;;;;;;;;;;5072103;28;20557;-60
2022/05/06 11:50:38;;;;;;;2.80;2.58;;;;;;;;;;5071905;28;20052;-60
2022/05/06 11:53:08;;;;;;;;;;;;;;;;;;5072241;28;20021;-59
2022/05/06 11:55:36;;;;;;;5.35;2.50;;;;;;;;;;5071515;28;20038;-52
2022/05/06 11:58:04;;;;;;;6.05;2.42;;;;;;;;;;5071007;28;20547;-56
2022/05/06 12:00:30;;;;;;;9.95;2.92;;;;;;;;;;5073086;28;20032;-52
2022/05/06 12:02:55;;;;;;;2.95;2.75;;;;;;;;;;5073293;28;20031;-54
2022/05/06 12:05:21;;;;;;;2.88;2.45;;;;;;;;;;5073004;28;20021;-50
2022/05/06 12:07:48;;;;;;;3.95;2.35;;;;;;;;;;5072627;28;20037;-52
2022/05/06 12:10:33;;;;;;;3.38;2.08;;;;;;;;;;5072150;28;20508;-52
2022/05/06 12:13:04;;;;;;;3.35;2.40;;;;;;;;;;5073059;28;20028;-53
2022/05/06 12:15:39;;;;;;;3.15;2.17;;;;;;;;;;5072806;28;20497;-56
2022/05/06 12:18:11;;;;;;;4.70;2.55;;;;;;;;;;5072325;28;20020;-51
2022/05/06 12:20:39;;;;;;;2.70;2.50;;;;;;;;;;5071644;28;20043;-53
2022/05/06 12:23:05;;;;;;;3.72;2.60;;;;;;;;;;5072634;28;20027;-55
2022/05/06 12:25:32;;;;;;;2.60;2.40;;;;;;;;;;5072634;28;20024;-55
2022/05/06 12:28:17;;;;;;;2.55;2.35;;;;;;;;;;5072855;28;20040;-51
2022/05/06 12:30:46;;;;;;;2.60;2.40;;;;;;;;;;5054444;28;20029;-54
2022/05/06 12:33:13;;;;;;;7.33;2.63;;;;;;;;;;5072168;28;20478;-57
2022/05/06 12:35:55;;;;;;;2.88;2.50;;;;;;;;;;5072221;28;20468;-53
2022/05/06 12:38:21;;;;;;;7.68;2.45;;;;;;;;;;5072371;28;20479;-51
2022/05/06 12:40:48;;;;;;;3.45;2.60;;;;;;;;;;5072684;28;20035;-55
2022/05/06 12:43:14;;;;;;;2.50;2.30;;;;;;;;;;5072326;28;20077;-55
2022/05/06 12:45:52;;;;;;;2.63;2.17;;;;;;;;;;5072732;28;20021;-54
2022/05/06 12:51:03;;;;;;;3.50;2.28;;;;;;;;;;5072653;28;20125;-54
2022/05/06 12:53:29;;;;;;;4.00;2.20;;;;;;;;;;5072627;28;20119;-54
2022/05/06 12:55:55;;;;;;;3.53;2.50;;;;;;;;;;5072013;28;20185;-52
2022/05/06 12:58:23;;;;;;;2.65;2.20;;;;;;;;;;5072245;28;20024;-54
2022/05/06 13:00:49;;;;;;;3.97;2.58;;;;;;;;;;5072287;28;20028;-53
2022/05/06 13:03:15;;;;;;;4.55;2.70;;;;;;;;;;5072335;28;20029;-55
2022/05/06 13:05:43;;;;;;;4.22;2.35;;;;;;;;;;5072379;28;20128;-57
2022/05/06 13:08:09;;;;;;;3.13;2.30;;;;;;;;;;5072441;28;20035;-53
2022/05/06 13:10:35;;;;;;;2.83;2.45;;;;;;;;;;5072274;28;20422;-53
2022/05/06 13:13:02;;;;;;;7.28;3.30;;;;;;;;;;5071959;28;20480;-53
2022/05/06 13:15:28;;;;;;;2.67;2.20;;;;;;;;;;5071924;28;20028;-53
2022/05/06 13:17:54;;;;;;;3.17;2.42;;;;;;;;;;5072365;28;20029;-49
2022/05/06 13:20:20;;;;;;;1.80;1.70;;;;;;;;;;5072421;28;20024;-52
2022/05/06 13:22:45;;;;;;;6.25;2.30;;;;;;;;;;5072177;28;20025;-52
2022/05/06 13:25:11;;;;;;;3.75;2.25;;;;;;;;;;5072327;28;20024;-52
2022/05/06 13:27:36;;;;;;;2.30;2.10;;;;;;;;;;5072245;28;20111;-50
2022/05/06 13:30:02;;;;;;;2.83;1.92;;;;;;;;;;5072022;28;20524;-50
2022/05/06 13:32:28;;;;;;;2.67;2.47;;;;;;;;;;5074332;28;20483;-52
2022/05/06 13:34:53;;;;;;;4.00;2.10;;;;;;;;;;5075350;28;20064;-54
2022/05/06 13:37:19;;;;;;;3.10;2.30;;;;;;;;;;5076036;28;20032;-53
2022/05/06 13:39:44;;;;;;;6.78;2.53;;;;;;;;;;5075657;28;20032;-53
2022/05/06 13:42:10;;;;;;;4.97;2.63;;;;;;;;;;5076057;28;20021;-54
2022/05/06 13:44:35;;;;;;;3.22;2.15;;;;;;;;;;5076047;28;20086;-52
2022/05/06 13:47:01;;;;;;;2.63;2.15;;;;;;;;;;5076035;28;20365;-53
2022/05/06 13:49:26;;;;;;;4.15;2.60;;;;;;;;;;5075788;28;20021;-55
2022/05/06 13:51:52;;;;;;;2.33;2.13;;;;;;;;;;5075461;28;20403;-58
2022/05/06 13:54:17;;;;;;;2.90;2.20;;;;;;;;;;5075013;28;20101;-52
2022/05/06 13:59:26;;;;;;;5.18;2.70;;;;;;;;;;5075712;28;20057;-54
2022/05/06 14:01:51;;;;;;;2.55;2.17;;;;;;;;;;5074836;28;20380;-60
2022/05/06 14:04:16;;;;;;;2.35;2.15;;;;;;;;;;5075656;28;20046;-62
2022/05/06 14:06:42;;;;;;;4.20;2.30;;;;;;;;;;5075290;28;20028;-53
2022/05/06 14:09:07;;;;;;;4.00;2.50;;;;;;;;;;5075438;28;20101;-60
2022/05/06 14:11:33;;;;;;;3.03;2.03;;;;;;;;;;5075238;28;20025;-60
2022/05/06 14:13:59;;;;;;;3.28;2.28;;;;;;;;;;5075525;28;20032;-54
2022/05/06 14:16:25;;;;;;;2.60;2.28;;;;;;;;;;5071978;28;20048;-54
2022/05/06 14:18:52;;;;;;;2.50;2.30;;;;;;;;;;5075432;28;20391;-57
2022/05/06 14:21:17;;;;;;;2.33;2.13;;;;;;;;;;5075053;28;20181;-56
2022/05/06 14:23:43;;;;;;;2.75;2.40;;;;;;;;;;5075110;28;20036;-54
2022/05/06 14:26:08;;;;;;;5.82;2.45;;;;;;;;;;5074320;28;20465;-55
2022/05/06 14:28:34;;;;;;;6.32;2.40;;;;;;;;;;5056948;28;20033;-52
2022/05/06 14:30:59;;;;;;;5.63;1.92;;;;;;;;;;5074997;28;20024;-54
2022/05/06 14:33:24;;;;;;;3.10;2.25;;;;;;;;;;5074750;28;20056;-52
2022/05/06 14:35:50;;;;;;;3.63;2.75;;;;;;;;;;5074782;28;20035;-57
2022/05/06 14:38:15;;;;;;;2.35;2.15;;;;;;;;;;5074623;28;20029;-57
2022/05/06 14:40:41;;;;;;;3.60;2.28;;;;;;;;;;5075043;28;20064;-55
2022/05/06 14:43:07;;;;;;;3.80;2.17;;;;;;;;;;5074079;28;20025;-55
2022/05/06 14:45:35;;;;;;;2.92;2.47;;;;;;;;;;5074967;28;20379;-54
2022/05/06 14:48:00;;;;;;;2.28;2.08;;;;;;;;;;5074850;28;20036;-52
2022/05/06 14:50:26;;;;;;;2.03;1.80;;;;;;;;;;5074544;28;20127;-55
2022/05/06 14:52:51;;;;;;;4.43;2.67;;;;;;;;;;5074718;28;20494;-56
2022/05/06 14:55:17;;;;;;;2.92;2.35;;;;;;;;;;5074361;28;20028;-54
2022/05/06 14:57:42;;;;;;;4.13;2.22;;;;;;;;;;5074153;28;20267;-54
2022/05/06 15:00:13;;;;;;;2.88;2.50;;;;;;;;;;5056490;28;20387;-56
2022/05/06 15:02:39;;;;;;;2.58;2.25;;;;;;;;;;5074523;28;20135;-51
2022/05/06 15:05:05;;;;;;;5.38;2.63;;;;;;;;;;5074253;28;20154;-50
2022/05/06 15:07:31;;;;;;;2.55;2.30;;;;;;;;;;5074433;28;20040;-53
2022/05/06 15:09:56;;;;;;;2.75;2.53;;;;;;;;;;5074406;28;20020;-50
2022/05/06 15:12:23;;;;;;;3.05;2.50;;;;;;;;;;5073911;28;20496;-54
2022/05/06 15:14:52;;;;;;;9.48;2.67;;;;;;;;;;5074262;28;20035;-49
2022/05/06 15:17:18;;;;;;;2.50;2.30;;;;;;;;;;5074233;28;20024;-55
2022/05/06 15:19:44;;;;;;;6.07;2.88;;;;;;;;;;5073856;28;20024;-55
2022/05/06 15:22:10;;;;;;;3.17;2.78;;;;;;;;;;5074190;28;20107;-52
2022/05/06 15:24:35;;;;;;;4.60;2.30;;;;;;;;;;5073837;28;20103;-55
2022/05/06 15:27:02;;;;;;;5.28;2.55;;;;;;;;;;5073677;28;20036;-56
2022/05/06 15:29:32;;;;;;;4.07;2.50;;;;;;;;;;5074138;28;20016;-53
2022/05/06 15:31:58;;;;;;;3.30;2.58;;;;;;;;;;5055428;28;20479;-54
2022/05/06 15:34:24;;;;;;;3.80;2.45;;;;;;;;;;5073950;28;20387;-52